createdAt,value
2018-12-11T00:00:31.325Z,19.30
2018-12-11T00:02:59.497Z,25.33
2018-12-11T00:05:27.696Z,22.57
2018-12-11T00:07:55.884Z,23.37
2018-12-11T00:10:24.117Z,24.73
2018-12-11T00:12:52.289Z,26.57
2018-12-11T00:15:20.497Z,29.47
2018-12-11T00:17:48.764Z,24.97
2018-12-11T00:20:17.076Z,25.63
2018-12-11T00:22:45.331Z,26.17
2018-12-11T00:25:13.593Z,28.10
2018-12-11T00:27:41.768Z,24.47
2018-12-11T00:30:10.065Z,26.37
2018-12-11T00:32:38.319Z,25.40
2018-12-11T00:35:07.597Z,24.67
2018-12-11T00:37:35.780Z,33.13
2018-12-11T00:40:05.558Z,20.60
2018-12-11T00:42:33.730Z,26.03
2018-12-11T00:45:01.958Z,23.63
2018-12-11T00:47:30.203Z,28.00
2018-12-11T00:49:58.398Z,23.87
2018-12-11T00:52:27.795Z,23.70
2018-12-11T00:54:55.972Z,20.00
2018-12-11T00:57:24.345Z,25.17
2018-12-11T00:59:52.535Z,25.73
2018-12-11T01:02:20.806Z,24.27
2018-12-11T01:04:48.985Z,23.83
2018-12-11T01:07:17.193Z,24.67
2018-12-11T01:09:45.424Z,22.77
2018-12-11T01:12:13.716Z,26.27
2018-12-11T01:14:41.894Z,25.20
2018-12-11T01:17:10.096Z,24.17
2018-12-11T01:19:38.311Z,25.20
2018-12-11T01:22:06.559Z,18.70
2018-12-11T01:24:35.593Z,20.00
2018-12-11T01:27:03.801Z,22.53
2018-12-11T01:29:31.996Z,19.33
2018-12-11T01:32:00.182Z,26.57
2018-12-11T01:34:28.364Z,23.50
2018-12-11T01:36:56.542Z,29.27
2018-12-11T01:39:24.742Z,26.27
2018-12-11T01:41:52.929Z,25.50
2018-12-11T01:44:21.184Z,22.03
2018-12-11T01:46:49.394Z,24.33
2018-12-11T01:49:17.592Z,24.77
2018-12-11T01:51:45.780Z,23.27
2018-12-11T01:54:14.084Z,23.80
2018-12-11T01:56:42.308Z,24.27
2018-12-11T01:59:10.528Z,23.87
2018-12-11T02:01:38.727Z,25.07
2018-12-11T02:04:06.927Z,23.43
2018-12-11T02:06:35.164Z,21.97
2018-12-11T02:09:05.373Z,22.30
2018-12-11T02:11:34.171Z,21.80
2018-12-11T02:14:02.457Z,16.00
2018-12-11T02:16:31.095Z,22.73
2018-12-11T02:18:59.410Z,25.20
2018-12-11T02:21:27.653Z,27.40
2018-12-11T02:23:55.859Z,21.70
2018-12-11T02:26:24.165Z,20.53
2018-12-11T02:28:52.371Z,22.77
2018-12-11T02:31:20.624Z,20.53
2018-12-11T02:33:48.846Z,18.73
2018-12-11T02:36:17.971Z,21.33
2018-12-11T02:38:46.178Z,23.00
2018-12-11T02:41:14.392Z,20.80
2018-12-11T02:43:42.662Z,19.13
2018-12-11T02:46:10.843Z,23.53
2018-12-11T02:48:39.117Z,13.53
2018-12-11T02:51:07.301Z,18.93
2018-12-11T02:53:35.585Z,18.87
2018-12-11T02:56:03.825Z,17.33
2018-12-11T02:58:32.033Z,20.93
2018-12-11T03:01:00.302Z,19.63
2018-12-11T03:03:28.501Z,21.27
2018-12-11T03:05:56.692Z,22.30
2018-12-11T03:08:24.882Z,20.37
2018-12-11T03:10:53.099Z,17.67
2018-12-11T03:13:21.285Z,20.00
2018-12-11T03:15:49.486Z,21.17
2018-12-11T03:18:17.704Z,20.37
2018-12-11T03:20:45.907Z,16.00
2018-12-11T03:23:14.159Z,19.73
2018-12-11T03:25:42.324Z,23.57
2018-12-11T03:28:10.543Z,21.40
2018-12-11T03:30:38.739Z,17.87
2018-12-11T03:33:06.969Z,15.73
2018-12-11T03:35:35.229Z,23.27
2018-12-11T03:38:03.419Z,23.20
2018-12-11T03:40:31.727Z,15.13
2018-12-11T03:42:59.927Z,19.47
2018-12-11T03:45:28.202Z,19.23
2018-12-11T03:47:56.375Z,18.43
2018-12-11T03:50:24.539Z,17.97
2018-12-11T03:52:52.846Z,24.00
2018-12-11T03:55:21.034Z,22.07
2018-12-11T03:57:49.220Z,20.70
2018-12-11T04:00:17.423Z,18.27
2018-12-11T04:02:45.752Z,26.97
2018-12-11T04:05:13.970Z,21.13
2018-12-11T04:07:42.294Z,25.63
2018-12-11T04:10:10.544Z,22.23
2018-12-11T04:12:38.846Z,18.73
2018-12-11T04:15:07.144Z,16.70
2018-12-11T04:17:35.346Z,21.17
2018-12-11T04:20:05.776Z,18.73
2018-12-11T04:22:33.960Z,19.83
2018-12-11T04:25:04.100Z,20.87
2018-12-11T04:27:32.276Z,22.00
2018-12-11T04:30:00.588Z,25.67
2018-12-11T04:32:28.861Z,20.13
2018-12-11T04:34:57.056Z,25.37
2018-12-11T04:37:25.276Z,21.03
2018-12-11T04:39:53.460Z,23.20
2018-12-11T04:42:21.642Z,22.77
2018-12-11T04:44:49.892Z,19.57
2018-12-11T04:47:18.094Z,19.50
2018-12-11T04:49:46.279Z,17.63
2018-12-11T04:52:14.469Z,23.63
2018-12-11T04:54:42.727Z,20.93
2018-12-11T04:57:10.907Z,17.53
2018-12-11T04:59:39.134Z,21.10
2018-12-11T05:02:07.344Z,12.47
2018-12-11T05:04:35.642Z,18.57
2018-12-11T05:07:03.912Z,24.97
2018-12-11T05:09:32.089Z,19.10
2018-12-11T05:12:00.336Z,22.90
2018-12-11T05:14:28.542Z,18.80
2018-12-11T05:16:56.747Z,19.97
2018-12-11T05:19:24.948Z,22.10
2018-12-11T05:21:53.277Z,17.90
2018-12-11T05:24:21.472Z,20.30
2018-12-11T05:26:49.659Z,22.73
2018-12-11T05:29:17.859Z,20.57
2018-12-11T05:31:46.049Z,19.23
2018-12-11T05:34:14.283Z,23.20
2018-12-11T05:36:42.488Z,21.90
2018-12-11T05:39:10.715Z,19.93
2018-12-11T05:41:38.883Z,19.83
2018-12-11T05:44:07.099Z,24.97
2018-12-11T05:46:35.371Z,23.00
2018-12-11T05:49:03.601Z,21.47
2018-12-11T05:51:31.925Z,24.53
2018-12-11T05:54:00.107Z,25.20
2018-12-11T05:56:28.454Z,23.90
2018-12-11T05:58:56.749Z,27.80
2018-12-11T06:01:25.109Z,22.00
2018-12-11T06:03:53.871Z,19.70
2018-12-11T06:06:22.103Z,24.53
2018-12-11T06:08:50.239Z,22.23
2018-12-11T06:11:18.429Z,26.50
2018-12-11T06:13:46.609Z,24.77
2018-12-11T06:16:15.077Z,23.37
2018-12-11T06:18:43.273Z,24.03
2018-12-11T06:21:11.557Z,20.63
2018-12-11T06:23:39.816Z,26.47
2018-12-11T06:26:08.049Z,21.20
2018-12-11T06:28:36.294Z,21.73
2018-12-11T06:31:04.668Z,24.17
2018-12-11T06:33:33.754Z,24.80
2018-12-11T06:36:01.943Z,21.77
2018-12-11T06:38:30.501Z,21.40
2018-12-11T06:40:58.672Z,22.87
2018-12-11T06:43:26.855Z,20.33
2018-12-11T06:45:55.057Z,24.40
2018-12-11T06:48:23.314Z,20.83
2018-12-11T06:50:51.566Z,30.27
2018-12-11T06:53:19.838Z,24.93
2018-12-11T06:55:48.242Z,27.03
2018-12-11T06:58:16.430Z,22.73
2018-12-11T07:00:44.678Z,28.33
2018-12-11T07:03:12.947Z,27.93
2018-12-11T07:05:41.142Z,28.70
2018-12-11T07:08:11.339Z,29.03
2018-12-11T07:10:39.624Z,21.80
2018-12-11T07:13:07.993Z,27.43
2018-12-11T07:15:36.207Z,23.23
2018-12-11T07:18:04.507Z,29.70
2018-12-11T07:20:32.739Z,25.87
2018-12-11T07:23:00.965Z,23.00
2018-12-11T07:25:29.279Z,23.00
2018-12-11T07:27:57.479Z,20.63
2018-12-11T07:30:25.689Z,21.90
2018-12-11T07:32:53.997Z,27.30
2018-12-11T07:35:22.183Z,22.77
2018-12-11T07:37:50.420Z,19.50
2018-12-11T07:40:18.721Z,23.57
2018-12-11T07:42:46.929Z,20.10
2018-12-11T07:45:15.208Z,24.23
2018-12-11T07:47:43.478Z,25.03
2018-12-11T07:50:11.678Z,26.63
2018-12-11T07:52:39.899Z,28.73
2018-12-11T07:55:08.073Z,24.63
2018-12-11T07:57:36.377Z,27.10
2018-12-11T08:00:06.612Z,21.83
2018-12-11T08:02:34.818Z,27.37
2018-12-11T08:05:03.050Z,27.37
2018-12-11T08:07:31.464Z,25.57
2018-12-11T08:09:59.737Z,26.60
2018-12-11T08:12:27.960Z,29.47
2018-12-11T08:14:56.156Z,22.23
2018-12-11T08:17:24.364Z,25.83
2018-12-11T08:19:52.569Z,29.73
2018-12-11T08:22:20.752Z,25.40
2018-12-11T08:24:49.064Z,26.10
2018-12-11T08:27:17.256Z,25.90
2018-12-11T08:29:45.576Z,23.70
2018-12-11T08:32:13.751Z,23.47
2018-12-11T08:34:41.963Z,27.00
2018-12-11T08:37:10.166Z,29.40
2018-12-11T08:39:38.349Z,29.93
2018-12-11T08:42:06.550Z,26.30
2018-12-11T08:44:34.724Z,26.13
2018-12-11T08:47:03.386Z,27.37
2018-12-11T08:49:31.560Z,25.37
2018-12-11T08:51:59.821Z,22.40
2018-12-11T08:54:28.119Z,28.03
2018-12-11T08:56:56.301Z,29.77
2018-12-11T08:59:24.576Z,24.33
2018-12-11T09:01:52.832Z,24.27
2018-12-11T09:04:21.024Z,23.77
2018-12-11T09:06:49.308Z,21.20
2018-12-11T09:09:17.501Z,24.17
2018-12-11T09:11:45.734Z,20.43
2018-12-11T09:14:15.061Z,24.03
2018-12-11T09:16:45.181Z,29.43
2018-12-11T09:19:13.414Z,23.87
2018-12-11T09:21:41.600Z,24.70
2018-12-11T09:24:09.800Z,23.97
2018-12-11T09:26:38.010Z,23.37
2018-12-11T09:29:06.363Z,29.40
2018-12-11T09:31:34.629Z,25.00
2018-12-11T09:34:02.897Z,24.83
2018-12-11T09:36:31.696Z,26.87
2018-12-11T09:38:59.989Z,26.23
2018-12-11T09:41:28.212Z,26.33
2018-12-11T09:43:56.509Z,26.70
2018-12-11T09:46:24.780Z,22.17
2018-12-11T09:48:53.056Z,25.70
2018-12-11T09:51:21.247Z,28.17
2018-12-11T09:53:49.440Z,25.47
2018-12-11T09:56:17.690Z,21.27
2018-12-11T09:58:45.974Z,27.77
2018-12-11T10:01:14.239Z,24.73
2018-12-11T10:03:42.506Z,26.77
2018-12-11T10:06:10.874Z,25.83
2018-12-11T10:08:39.072Z,34.20
2018-12-11T10:11:07.269Z,34.60
2018-12-11T10:13:35.464Z,22.77
2018-12-11T10:16:03.800Z,28.83
2018-12-11T10:18:32.061Z,21.40
2018-12-11T10:21:00.411Z,22.23
2018-12-11T10:23:31.815Z,25.13
2018-12-11T10:25:59.549Z,22.07
2018-12-11T10:28:27.816Z,23.90
2018-12-11T10:30:55.978Z,21.77
2018-12-11T10:33:24.375Z,25.17
2018-12-11T10:35:52.648Z,18.47
2018-12-11T10:38:20.880Z,16.50
2018-12-11T10:40:49.072Z,18.20
2018-12-11T10:43:17.248Z,16.97
2018-12-11T10:45:45.468Z,19.03
2018-12-11T10:48:13.640Z,23.73
2018-12-11T10:50:41.920Z,17.83
2018-12-11T10:53:10.096Z,22.97
2018-12-11T10:55:38.491Z,16.73
2018-12-11T10:58:06.837Z,17.83
2018-12-11T11:00:40.684Z,20.10
2018-12-11T11:03:08.924Z,18.03
2018-12-11T11:05:37.348Z,22.77
2018-12-11T11:08:05.687Z,22.70
2018-12-11T11:10:33.910Z,17.53
2018-12-11T11:13:02.145Z,20.37
2018-12-11T11:15:30.446Z,21.93
2018-12-11T11:17:58.616Z,13.90
2018-12-11T11:20:26.800Z,17.37
2018-12-11T11:22:54.975Z,18.00
2018-12-11T11:25:23.268Z,18.00
2018-12-11T11:27:51.568Z,22.47
2018-12-11T11:30:19.956Z,17.73
2018-12-11T11:32:48.130Z,16.60
2018-12-11T11:35:16.346Z,19.90
2018-12-11T11:37:44.636Z,18.27
2018-12-11T11:40:12.836Z,16.20
2018-12-11T11:42:41.518Z,18.53
2018-12-11T11:45:10.797Z,15.30
2018-12-11T11:47:38.984Z,19.40
2018-12-11T11:50:09.314Z,13.53
2018-12-11T11:52:37.488Z,13.57
2018-12-11T11:55:05.728Z,14.33
2018-12-11T11:57:34.014Z,15.07
2018-12-11T12:00:02.373Z,16.70
2018-12-11T12:02:33.320Z,13.93
2018-12-11T12:05:00.721Z,15.83
2018-12-11T12:07:29.030Z,13.37
2018-12-11T12:09:57.309Z,16.57
2018-12-11T12:12:26.101Z,19.00
2018-12-11T12:14:54.282Z,16.60
2018-12-11T12:17:22.517Z,18.13
2018-12-11T12:19:50.711Z,15.10
2018-12-11T12:22:18.949Z,20.40
2018-12-11T12:24:48.148Z,21.13
2018-12-11T12:27:16.317Z,23.77
2018-12-11T12:29:44.601Z,16.83
2018-12-11T12:32:12.871Z,15.77
2018-12-11T12:34:41.032Z,23.90
2018-12-11T12:37:09.301Z,15.30
2018-12-11T12:39:38.364Z,17.07
2018-12-11T12:42:06.796Z,19.40
2018-12-11T12:44:35.026Z,16.00
2018-12-11T12:47:03.393Z,19.60
2018-12-11T12:49:31.601Z,15.97
2018-12-11T12:51:59.825Z,12.03
2018-12-11T12:54:28.017Z,17.73
2018-12-11T12:56:56.201Z,14.40
2018-12-11T12:59:24.425Z,13.50
2018-12-11T13:01:52.766Z,19.93
2018-12-11T13:04:21.076Z,14.77
2018-12-11T13:06:49.246Z,14.83
2018-12-11T13:09:17.424Z,15.97
2018-12-11T13:11:45.702Z,15.43
2018-12-11T13:14:13.976Z,13.27
2018-12-11T13:16:42.349Z,18.50
2018-12-11T13:19:10.803Z,19.03
2018-12-11T13:21:39.012Z,13.17
2018-12-11T13:24:08.302Z,17.97
2018-12-11T13:26:36.464Z,17.77
2018-12-11T13:29:05.675Z,14.00
2018-12-11T13:31:33.884Z,13.90
2018-12-11T13:34:02.122Z,17.73
2018-12-11T13:36:32.134Z,12.73
2018-12-11T13:39:00.630Z,9.57
2018-12-11T13:41:29.012Z,16.90
2018-12-11T13:43:57.247Z,15.37
2018-12-11T13:46:25.451Z,16.93
2018-12-11T13:48:53.750Z,14.63
2018-12-11T13:51:22.008Z,13.57
2018-12-11T13:53:50.241Z,13.03
2018-12-11T13:56:18.434Z,14.87
2018-12-11T13:58:46.636Z,17.63
2018-12-11T14:01:14.904Z,13.03
2018-12-11T14:03:43.088Z,13.00
2018-12-11T14:06:11.354Z,16.20
2018-12-11T14:08:39.536Z,16.87
2018-12-11T14:11:07.772Z,14.10
2018-12-11T14:13:35.978Z,12.73
2018-12-11T14:16:04.552Z,11.93
2018-12-11T14:18:32.836Z,17.37
2018-12-11T14:21:02.112Z,17.50
2018-12-11T14:23:30.334Z,15.23
2018-12-11T14:25:58.509Z,18.83
2018-12-11T14:28:26.764Z,19.00
2018-12-11T14:30:55.044Z,13.60
2018-12-11T14:33:23.324Z,17.50
2018-12-11T14:35:51.500Z,14.20
2018-12-11T14:38:19.775Z,17.00
2018-12-11T14:40:48.476Z,14.63
2018-12-11T14:43:16.669Z,19.23
2018-12-11T14:45:44.846Z,13.27
2018-12-11T14:48:13.044Z,11.43
2018-12-11T14:50:41.250Z,11.03
2018-12-11T14:53:09.452Z,11.47
2018-12-11T14:55:37.659Z,9.73
2018-12-11T14:58:06.863Z,13.97
2018-12-11T15:00:35.156Z,14.37
2018-12-11T15:03:03.491Z,11.50
2018-12-11T15:05:31.679Z,20.50
2018-12-11T15:08:00.216Z,11.73
2018-12-11T15:10:28.770Z,18.00
2018-12-11T15:12:56.987Z,16.23
2018-12-11T15:15:25.246Z,12.67
2018-12-11T15:17:53.521Z,14.30
2018-12-11T15:20:21.791Z,15.67
2018-12-11T15:22:50.029Z,18.13
2018-12-11T15:25:18.543Z,14.07
2018-12-11T15:27:46.809Z,14.87
2018-12-11T15:30:15.079Z,8.20
2018-12-11T15:32:43.268Z,15.23
2018-12-11T15:35:11.515Z,17.70
2018-12-11T15:37:39.699Z,15.13
2018-12-11T15:40:08.004Z,15.07
2018-12-11T15:42:36.257Z,15.27
2018-12-11T15:45:05.369Z,13.93
2018-12-11T15:47:33.554Z,14.20
2018-12-11T15:50:01.780Z,12.03
2018-12-11T15:52:30.045Z,14.37
2018-12-11T15:54:58.229Z,13.63
2018-12-11T15:57:26.403Z,16.00
2018-12-11T15:59:54.715Z,15.23
2018-12-11T16:02:24.007Z,16.27
2018-12-11T16:04:52.208Z,17.13
2018-12-11T16:07:20.455Z,17.10
2018-12-11T16:09:48.669Z,13.87
2018-12-11T16:12:16.907Z,15.83
2018-12-11T16:14:45.083Z,15.93
2018-12-11T16:17:13.277Z,18.07
2018-12-11T16:19:41.467Z,19.53
2018-12-11T16:22:09.700Z,20.90
2018-12-11T16:24:37.880Z,19.63
2018-12-11T16:27:06.047Z,14.23
2018-12-11T16:29:34.311Z,19.93
2018-12-11T16:32:02.512Z,18.67
2018-12-11T16:34:30.702Z,14.50
2018-12-11T16:36:58.914Z,18.77
2018-12-11T16:39:27.947Z,17.90
2018-12-11T16:41:56.288Z,18.57
2018-12-11T16:44:24.480Z,12.73
2018-12-11T16:46:52.640Z,16.80
2018-12-11T16:49:20.847Z,19.40
2018-12-11T16:51:49.030Z,21.87
2018-12-11T16:54:17.197Z,20.80
2018-12-11T16:56:45.476Z,16.27
2018-12-11T16:59:13.736Z,19.70
2018-12-11T17:01:41.936Z,21.47
2018-12-11T17:04:10.256Z,15.03
2018-12-11T17:06:38.577Z,20.23
2018-12-11T17:09:06.884Z,20.60
2018-12-11T17:11:35.072Z,24.83
2018-12-11T17:14:03.332Z,21.80
2018-12-11T17:16:31.526Z,29.37
2018-12-11T17:18:59.708Z,21.93
2018-12-11T17:21:27.914Z,24.73
2018-12-11T17:23:56.186Z,21.67
2018-12-11T17:26:24.372Z,23.90
2018-12-11T17:28:52.553Z,26.87
2018-12-11T17:31:20.749Z,22.57
2018-12-11T17:33:48.969Z,26.47
2018-12-11T17:36:17.157Z,24.23
2018-12-11T17:38:45.347Z,23.77
2018-12-11T17:41:13.547Z,26.33
2018-12-11T17:43:41.782Z,33.93
2018-12-11T17:46:10.006Z,28.90
2018-12-11T17:48:41.531Z,26.93
2018-12-11T17:51:08.925Z,31.27
2018-12-11T17:53:37.395Z,27.40
2018-12-11T17:56:05.883Z,33.00
2018-12-11T17:58:34.070Z,29.30
2018-12-11T18:01:02.395Z,30.57
2018-12-11T18:03:30.577Z,35.00
2018-12-11T18:05:58.847Z,31.07
2018-12-11T18:08:27.191Z,30.20
2018-12-11T18:10:55.428Z,32.23
2018-12-11T18:13:23.720Z,29.30
2018-12-11T18:15:51.931Z,31.40
2018-12-11T18:18:20.175Z,30.17
2018-12-11T18:20:48.470Z,39.53
2018-12-11T18:23:16.669Z,34.47
2018-12-11T18:25:44.875Z,35.67
2018-12-11T18:28:13.063Z,32.80
2018-12-11T18:30:41.287Z,36.03
2018-12-11T18:33:09.550Z,29.27
2018-12-11T18:35:37.737Z,37.40
2018-12-11T18:38:06.007Z,31.67
2018-12-11T18:40:34.367Z,35.93
2018-12-11T18:43:02.824Z,36.90
2018-12-11T18:45:31.109Z,41.93
2018-12-11T18:47:59.320Z,30.37
2018-12-11T18:50:28.393Z,37.97
2018-12-11T18:52:56.562Z,34.20
2018-12-11T18:55:24.764Z,33.00
2018-12-11T18:57:53.031Z,33.57
2018-12-11T19:00:21.214Z,46.33
2018-12-11T19:02:49.496Z,41.33
2018-12-11T19:05:17.803Z,40.30
2018-12-11T19:07:46.053Z,41.87
2018-12-11T19:10:14.323Z,36.27
2018-12-11T19:12:42.554Z,34.87
2018-12-11T19:15:10.883Z,33.00
2018-12-11T19:17:39.101Z,38.77
2018-12-11T19:20:07.366Z,37.20
2018-12-11T19:22:35.878Z,32.40
2018-12-11T19:25:07.246Z,33.67
2018-12-11T19:27:35.615Z,37.30
2018-12-11T19:30:05.453Z,37.27
2018-12-11T19:32:33.705Z,41.07
2018-12-11T19:35:01.938Z,41.17
2018-12-11T19:37:30.168Z,40.83
2018-12-11T19:40:02.051Z,33.27
2018-12-11T19:42:28.634Z,42.50
2018-12-11T19:44:56.874Z,38.57
2018-12-11T19:47:25.148Z,43.70
2018-12-11T19:49:53.478Z,37.23
2018-12-11T19:52:21.802Z,38.17
2018-12-11T19:54:50.158Z,36.23
2018-12-11T19:57:18.391Z,44.53
2018-12-11T19:59:46.700Z,47.03
2018-12-11T20:02:14.926Z,48.93
2018-12-11T20:04:43.141Z,41.80
2018-12-11T20:07:11.367Z,38.37
2018-12-11T20:09:41.565Z,45.37
2018-12-11T20:12:09.820Z,40.97
2018-12-11T20:14:38.095Z,44.50
2018-12-11T20:17:06.503Z,45.87
2018-12-11T20:19:34.785Z,49.70
2018-12-11T20:22:03.041Z,42.87
2018-12-11T20:24:31.379Z,46.40
2018-12-11T20:26:59.611Z,39.13
2018-12-11T20:29:27.835Z,41.50
2018-12-11T20:31:56.027Z,40.90
2018-12-11T20:34:24.285Z,40.33
2018-12-11T20:36:52.543Z,39.50
2018-12-11T20:39:20.727Z,36.50
2018-12-11T20:41:48.940Z,46.30
2018-12-11T20:44:17.144Z,42.83
2018-12-11T20:46:45.331Z,39.67
2018-12-11T20:49:15.461Z,35.57
2018-12-11T20:51:43.638Z,42.40
2018-12-11T20:54:11.916Z,42.13
2018-12-11T20:56:40.121Z,40.93
2018-12-11T20:59:08.337Z,43.60
2018-12-11T21:01:36.649Z,45.70
2018-12-11T21:04:06.868Z,41.83
2018-12-11T21:06:35.052Z,45.00
2018-12-11T21:09:06.585Z,39.63
2018-12-11T21:11:34.861Z,46.20
2018-12-11T21:14:03.256Z,43.23
2018-12-11T21:16:31.437Z,37.90
2018-12-11T21:18:59.782Z,43.33
2018-12-11T21:21:28.177Z,40.17
2018-12-11T21:23:56.934Z,42.03
2018-12-11T21:26:25.228Z,44.93
2018-12-11T21:28:53.420Z,47.57
2018-12-11T21:31:21.655Z,42.47
2018-12-11T21:33:49.870Z,46.23
2018-12-11T21:36:18.137Z,46.43
2018-12-11T21:38:46.421Z,41.40
2018-12-11T21:41:14.684Z,44.83
2018-12-11T21:43:42.964Z,43.07
2018-12-11T21:46:11.156Z,45.57
2018-12-11T21:48:39.413Z,49.37
2018-12-11T21:51:08.418Z,43.90
2018-12-11T21:53:36.689Z,44.97
2018-12-11T21:56:04.964Z,44.37
2018-12-11T21:58:33.282Z,44.83
2018-12-11T22:01:01.480Z,43.00
2018-12-11T22:03:29.724Z,48.07
2018-12-11T22:05:58.209Z,43.30
2018-12-11T22:08:26.453Z,45.10
2018-12-11T22:10:54.615Z,42.90
2018-12-11T22:13:22.880Z,43.73
2018-12-11T22:15:51.271Z,49.17
2018-12-11T22:18:19.541Z,46.70
2018-12-11T22:20:47.722Z,43.10
2018-12-11T22:23:16.002Z,41.43
2018-12-11T22:25:44.253Z,49.20
2018-12-11T22:28:12.514Z,42.83
2018-12-11T22:30:40.713Z,43.63
2018-12-11T22:33:08.997Z,44.67
2018-12-11T22:35:37.177Z,45.47
2018-12-11T22:38:05.459Z,47.03
2018-12-11T22:40:33.721Z,47.50
2018-12-11T22:43:02.001Z,44.97
2018-12-11T22:45:30.269Z,44.43
2018-12-11T22:47:58.649Z,51.03
2018-12-11T22:50:26.860Z,51.93
2018-12-11T22:52:55.776Z,47.13
2018-12-11T22:55:24.002Z,47.87
2018-12-11T22:57:52.352Z,54.60
2018-12-11T23:00:20.736Z,49.87
2018-12-11T23:02:48.932Z,49.83
2018-12-11T23:05:17.185Z,47.50
2018-12-11T23:07:45.378Z,52.43
2018-12-11T23:10:13.572Z,46.47
2018-12-11T23:12:41.783Z,57.13
2018-12-11T23:15:10.044Z,56.13
2018-12-11T23:17:38.228Z,49.83
2018-12-11T23:20:06.526Z,50.93
2018-12-11T23:22:34.701Z,46.97
2018-12-11T23:25:02.873Z,54.20
2018-12-11T23:27:31.086Z,52.10
2018-12-11T23:29:59.313Z,53.50
2018-12-11T23:32:27.499Z,57.70
2018-12-11T23:34:55.684Z,53.27
2018-12-11T23:37:23.896Z,48.97
2018-12-11T23:39:52.356Z,53.67
2018-12-11T23:42:20.580Z,48.17
2018-12-11T23:44:48.800Z,53.80
2018-12-11T23:47:17.065Z,53.50
2018-12-11T23:49:45.253Z,56.80
2018-12-11T23:52:13.428Z,62.37
2018-12-11T23:54:41.674Z,50.97
2018-12-11T23:57:09.871Z,56.67
2018-12-11T23:59:38.124Z,51.03
